Hallsville, OH

2:50 AM EDT on March 30, 2015 (GMT -0400)
Rock House State Park area | | Change Station
CLOSE
Current Station
Personal Weather Station
Location: Laurelville, OH
Elevation: 1086 ft
Nearby Weather Stations

Elev 1086 ft 39.48 °N, 82.66 °W | Updated 6 seconds ago

Overcast
Overcast
42.2 °F
Feels Like 42 °F
N
1.6
Wind Variable Wind from WSW
Gusts 6.0 mph

Today
High -- | Low -- °F
--% Chance of Precip.
Yesterday
High -- | Low -- °F
Precip. -- in
7:19 AM 7:52 PM
Waxing Gibbous, 77% visible
Pressure 29.92 in
Visibility 10.0 miles
Clouds Overcast 4200 ft
Windchill 42 °F
Dew Point 37 °F
Humidity 82%
Rainfall 0.00 in
Snow Depth Not available.
UV 0 out of 12
Pollen 7.70 out of 12
Air Quality Not available.
Flu Activity Not available.
METAR KLHQ 300553Z AUTO 23011G17KT 10SM OVC042 06/02 A2991 RMK AO2 SLP131 60004 T00610017 10083 20056 58026

More Conditions Fewer Conditions

Pressure 29.92 in
Visibility 10.0 miles
Clouds Overcast 4200 ft
Windchill 42 °F
Dew Point 37 °F
Humidity 82%
Rainfall 0.00 in
Snow Depth Not available.
UV 0 out of 12
Pollen 7.70 out of 12
Air Quality Not available.
Flu Activity Not available.
METAR KLHQ 300553Z AUTO 23011G17KT 10SM OVC042 06/02 A2991 RMK AO2 SLP131 60004 T00610017 10083 20056 58026

More Conditions Fewer Conditions

10-Day Weather Forecast

Almanac

Astronomy

Mar. 30, 2015 Rise Set
Actual Time
Civil Twilight
Nautical Twilight
Astronomical Twilight
Moon
Length of Visible Light
Length of Day
Tomorrow will be .
, % of the Moon is Illuminated

Today's Extremes

State Highs State Lows

Community

WunderPhotos

Upload Photos

1,809,439 photos uploaded!

WunderBlogs® & News

Nearby

Air Quality

  Air Quality AQ Index Pollutant
Not available.

Snow Depth

Station Depth Elevation

Earthquake Activity

City Distance Mag. Time & Date
Minimum magnitude displayed is 2.5.

Coastal Water Temperatures

Place Temperature

Stations

Nearby Weather Stations

Station Location Temp. Windchill Dew Point Humidity Wind Precip. Elev Updated Type